Time;durP1;ratioP1;P1;durP2;ratioP2;P2;SDS_P1;SDS_P2;PMS_P1;PMS_P2;Temp;Humidity;BMP_temperature;BMP_pressure;BME280_temperature;BME280_humidity;BME280_pressure;Samples;Min_cycle;Max_cycle;Signal;HPM_P1;HPM_P2
2022/05/02 00:00:24;;;;;;;3.87;2.83;;;;;;;9.55;100.00;96242.53;5026895;28;20233;-84
2022/05/02 00:02:51;;;;;;;3.10;2.83;;;;;;;9.48;100.00;96231.84;5034859;28;20300;-84
2022/05/02 00:05:18;;;;;;;2.80;2.60;;;;;;;9.41;100.00;96235.69;5018968;28;20207;-84
2022/05/02 00:07:46;;;;;;;4.00;2.90;;;;;;;9.35;100.00;96236.59;5032039;28;20246;-84
2022/05/02 00:10:14;;;;;;;4.43;2.93;;;;;;;9.27;100.00;96226.91;5018416;28;20277;-84
2022/05/02 00:12:41;;;;;;;4.97;2.87;;;;;;;9.29;100.00;96229.38;5021468;28;20202;-84
2022/05/02 00:15:09;;;;;;;3.10;2.80;;;;;;;9.26;100.00;96224.47;5048310;28;20310;-85
2022/05/02 00:20:21;;;;;;;3.87;2.83;;;;;;;9.17;100.00;96223.94;5024096;28;20270;-84
2022/05/02 00:22:49;;;;;;;3.40;2.97;;;;;;;9.19;100.00;96223.69;5033694;28;20199;-84
2022/05/02 00:25:17;;;;;;;5.13;2.60;;;;;;;9.17;100.00;96215.03;5024051;28;20271;-85
2022/05/02 00:27:44;;;;;;;2.87;2.57;;;;;;;9.09;100.00;96208.91;5023349;28;20264;-84
2022/05/02 00:30:13;;;;;;;2.90;2.53;;;;;;;9.09;100.00;96219.69;5042326;28;20227;-85
2022/05/02 00:32:40;;;;;;;3.30;2.80;;;;;;;9.04;100.00;96211.44;5040028;28;20262;-84
2022/05/02 00:35:09;;;;;;;2.70;2.50;;;;;;;9.08;100.00;96209.94;5026694;28;20199;-84
2022/05/02 00:37:37;;;;;;;2.80;2.50;;;;;;;9.09;100.00;96208.91;5025272;28;20261;-85
2022/05/02 00:40:07;;;;;;;2.90;2.63;;;;;;;9.05;100.00;96198.78;5026315;28;20222;-84
2022/05/02 00:42:34;;;;;;;4.33;2.40;;;;;;;9.03;100.00;96204.38;5033344;28;20237;-84
2022/05/02 00:45:02;;;;;;;4.23;2.23;;;;;;;9.05;100.00;96202.31;5021943;28;20285;-84
2022/05/02 00:47:29;;;;;;;6.33;2.63;;;;;;;8.98;100.00;96201.56;5035240;28;20202;-84
2022/05/02 00:49:56;;;;;;;3.17;2.37;;;;;;;9.01;100.00;96211.06;5020050;28;20234;-84
2022/05/02 00:52:23;;;;;;;3.80;2.70;;;;;;;9.00;100.00;96204.84;5024064;28;20354;-84
2022/05/02 00:54:50;;;;;;;3.77;2.70;;;;;;;8.98;100.00;96200.72;5025177;28;20230;-84
2022/05/02 00:57:19;;;;;;;2.73;2.53;;;;;;;9.01;100.00;96205.69;5025732;28;20227;-84
2022/05/02 00:59:46;;;;;;;2.43;2.23;;;;;;;8.91;100.00;96200.81;5040916;28;20200;-84
2022/05/02 01:02:16;;;;;;;3.03;2.77;;;;;;;8.83;100.00;96211.88;5040784;28;20217;-84
2022/05/02 01:04:43;;;;;;;4.07;2.67;;;;;;;8.75;100.00;96204.09;5029355;28;20298;-84
2022/05/02 01:07:11;;;;;;;3.20;2.60;;;;;;;8.64;100.00;96202.13;5041690;28;20207;-84
2022/05/02 01:09:41;;;;;;;3.10;2.80;;;;;;;8.60;100.00;96208.97;5026685;28;20223;-84
2022/05/02 01:12:11;;;;;;;3.37;2.90;;;;;;;8.54;100.00;96196.41;5009148;28;20246;-83
2022/05/02 01:14:40;;;;;;;3.87;3.20;;;;;;;8.49;100.00;96199.78;5013395;28;20203;-84
2022/05/02 01:17:07;;;;;;;3.67;3.00;;;;;;;8.49;100.00;96197.09;5017928;28;20219;-84
2022/05/02 01:19:35;;;;;;;3.53;2.43;;;;;;;8.56;100.00;96202.41;5013508;28;20214;-84
2022/05/02 01:22:05;;;;;;;3.43;2.43;;;;;;;8.52;100.00;96191.25;5040664;28;20219;-84
2022/05/02 01:24:38;;;;;;;2.60;2.40;;;;;;;8.43;100.00;96199.81;5029075;28;20239;-83
2022/05/02 01:27:07;;;;;;;3.97;2.30;;;;;;;8.37;100.00;96201.53;5025504;28;20202;-85
2022/05/02 01:29:35;;;;;;;3.93;2.43;;;;;;;8.38;100.00;96189.72;5038787;28;20210;-84
2022/05/02 01:32:06;;;;;;;2.50;2.30;;;;;;;8.44;100.00;96196.91;5038508;28;20293;-84
2022/05/02 01:34:33;;;;;;;3.20;2.73;;;;;;;8.45;100.00;96201.25;5016464;28;20277;-84
2022/05/02 01:37:00;;;;;;;2.50;2.30;;;;;;;8.49;100.00;96202.47;5022692;28;20262;-84
2022/05/02 01:39:29;;;;;;;3.40;3.10;;;;;;;8.48;100.00;96200.81;5024873;28;20295;-84
2022/05/02 01:42:00;;;;;;;2.57;2.37;;;;;;;8.41;100.00;96204.59;5033713;28;20220;-84
2022/05/02 01:44:27;;;;;;;4.03;3.07;;;;;;;8.21;100.00;96199.34;5029095;28;20215;-84
2022/05/02 01:46:55;;;;;;;4.10;2.60;;;;;;;8.09;100.00;96201.91;5028085;28;20229;-84
2022/05/02 01:49:22;;;;;;;4.00;2.90;;;;;;;7.94;100.00;96198.72;5024402;28;20203;-84
2022/05/02 01:51:49;;;;;;;4.20;2.97;;;;;;;7.87;100.00;96197.94;5022284;28;20235;-83
2022/05/02 01:54:16;;;;;;;3.07;2.60;;;;;;;7.88;100.00;96204.97;5018758;28;20214;-84
2022/05/02 01:56:45;;;;;;;6.10;2.90;;;;;;;7.88;100.00;96207.66;5039107;28;20297;-84
2022/05/02 01:59:12;;;;;;;3.20;2.77;;;;;;;7.86;100.00;96202.50;5045024;28;20222;-84
2022/05/02 02:01:39;;;;;;;4.33;3.23;;;;;;;7.86;100.00;96207.03;5022458;28;20207;-83
2022/05/02 02:05:48;;;;;;;3.27;2.60;;;;;;;7.86;100.00;96201.66;5021776;28;20199;-84
2022/05/02 02:06:53;;;;;;;3.00;2.60;;;;;;;7.95;100.00;96203.88;5019454;28;20230;-84
2022/05/02 02:09:21;;;;;;;2.83;2.47;;;;;;;7.96;100.00;96202.03;5024063;28;20210;-84
2022/05/02 02:11:49;;;;;;;2.50;2.30;;;;;;;7.99;100.00;96206.97;5028470;28;20234;-84
2022/05/02 02:14:16;;;;;;;4.50;2.80;;;;;;;7.87;100.00;96196.06;5019922;28;20298;-84
2022/05/02 02:16:43;;;;;;;5.40;3.00;;;;;;;7.76;100.00;96198.63;5029722;28;20319;-84
2022/05/02 02:19:10;;;;;;;3.53;3.00;;;;;;;7.67;100.00;96205.28;5023072;28;20213;-84
2022/05/02 02:21:38;;;;;;;8.10;3.30;;;;;;;7.63;100.00;96206.78;5029572;28;20294;-84
2022/05/02 02:24:05;;;;;;;3.77;3.10;;;;;;;7.55;100.00;96206.00;5040944;28;20203;-84
2022/05/02 02:26:34;;;;;;;3.47;2.90;;;;;;;7.52;100.00;96192.97;5026393;28;20199;-84
2022/05/02 02:29:04;;;;;;;4.20;2.80;;;;;;;7.52;100.00;96198.34;5018827;28;20210;-84
2022/05/02 02:31:31;;;;;;;5.17;2.80;;;;;;;7.45;100.00;96189.50;5021054;28;20313;-84
2022/05/02 02:33:58;;;;;;;3.40;2.57;;;;;;;7.49;100.00;96189.88;5042029;28;20205;-84
2022/05/02 02:36:25;;;;;;;5.07;3.10;;;;;;;7.51;100.00;96194.00;5020591;28;20230;-84
2022/05/02 02:38:52;;;;;;;4.47;3.50;;;;;;;7.44;100.00;96187.84;5019613;28;20285;-84
2022/05/02 02:41:19;;;;;;;3.27;2.93;;;;;;;7.46;100.00;96193.84;5026384;28;20270;-84
2022/05/02 02:43:46;;;;;;;4.03;3.10;;;;;;;7.39;100.00;96185.00;5017625;28;20203;-84
2022/05/02 02:46:15;;;;;;;3.10;2.80;;;;;;;7.29;100.00;96179.25;5035199;28;20212;-84
2022/05/02 02:48:42;;;;;;;3.00;2.70;;;;;;;7.31;100.00;96177.19;5046885;28;20298;-84
2022/05/02 02:51:09;;;;;;;2.80;2.50;;;;;;;7.33;100.00;96169.72;5021857;28;20242;-84
2022/05/02 02:53:36;;;;;;;2.93;2.63;;;;;;;7.38;100.00;96164.53;5034392;28;20216;-84
2022/05/02 02:56:03;;;;;;;6.40;3.00;;;;;;;7.36;100.00;96168.47;5028481;28;20208;-84
2022/05/02 02:58:30;;;;;;;3.33;2.70;;;;;;;7.40;100.00;96158.97;5030992;28;20200;-84
2022/05/02 03:00:57;;;;;;;7.23;2.60;;;;;;;7.37;100.00;96162.91;5022097;28;20213;-84
2022/05/02 03:03:26;;;;;;;3.07;2.67;;;;;;;7.37;100.00;96154.84;5037059;28;20287;-84
2022/05/02 03:06:05;;;;;;;3.00;2.70;;;;;;;7.38;100.00;96153.81;5022713;28;20226;-84
2022/05/02 03:08:36;;;;;;;4.47;2.77;;;;;;;7.39;100.00;96150.09;5037663;28;20210;-84
2022/05/02 03:11:04;;;;;;;3.20;2.60;;;;;;;7.36;100.00;96153.19;5019493;28;20234;-84
2022/05/02 03:13:31;;;;;;;4.63;2.60;;;;;;;7.33;100.00;96148.22;5014765;28;20215;-84
2022/05/02 03:15:58;;;;;;;3.10;2.80;;;;;;;7.39;100.00;96142.03;5010874;28;20231;-84
2022/05/02 03:18:26;;;;;;;3.17;2.70;;;;;;;7.35;100.00;96135.41;5026999;28;20499;-84
2022/05/02 03:20:54;;;;;;;2.90;2.60;;;;;;;7.33;100.00;96131.28;5025019;28;20286;-84
2022/05/02 03:23:21;;;;;;;3.13;2.60;;;;;;;7.36;100.00;96134.38;5022939;28;20221;-84
2022/05/02 03:25:48;;;;;;;3.73;2.43;;;;;;;7.35;100.00;96131.91;5034991;28;20227;-86
2022/05/02 03:28:16;;;;;;;2.30;2.10;;;;;;;7.41;100.00;96133.72;5027369;28;20214;-84
2022/05/02 03:30:43;;;;;;;3.43;2.73;;;;;;;7.39;100.00;96133.97;5022472;28;20262;-84
2022/05/02 03:33:10;;;;;;;3.30;2.60;;;;;;;7.38;100.00;96135.00;5036969;28;20365;-84
2022/05/02 03:35:39;;;;;;;3.33;2.50;;;;;;;7.44;100.00;96138.69;5041201;28;20214;-84
2022/05/02 03:38:06;;;;;;;3.87;2.70;;;;;;;7.43;100.00;96137.84;5044550;28;20198;-84
2022/05/02 03:40:34;;;;;;;2.97;2.60;;;;;;;7.36;100.00;96131.69;5029273;28;20207;-84
2022/05/02 03:43:01;;;;;;;5.23;2.70;;;;;;;7.21;100.00;96129.31;5036797;28;20226;-84
2022/05/02 03:45:28;;;;;;;2.77;2.57;;;;;;;7.15;100.00;96130.13;5038778;28;20202;-84
2022/05/02 03:47:55;;;;;;;4.33;2.77;;;;;;;7.13;100.00;96131.41;5041556;28;20318;-84
2022/05/02 03:50:23;;;;;;;3.10;2.60;;;;;;;7.16;100.00;96131.78;5046350;28;20233;-83
2022/05/02 03:52:51;;;;;;;3.77;2.57;;;;;;;7.18;100.00;96128.91;5024469;28;20292;-84
2022/05/02 03:55:18;;;;;;;4.30;2.60;;;;;;;7.17;100.00;96125.38;5037374;28;20445;-84
2022/05/02 03:57:45;;;;;;;4.80;2.73;;;;;;;7.19;100.00;96127.88;5028647;28;20202;-84
2022/05/02 04:00:13;;;;;;;3.30;3.00;;;;;;;7.17;100.00;96127.25;5024503;28;20199;-84
2022/05/02 04:02:41;;;;;;;2.57;2.37;;;;;;;7.14;100.00;96125.00;5024798;28;20218;-84
2022/05/02 04:05:09;;;;;;;2.57;2.20;;;;;;;7.21;100.00;96126.63;5037173;28;20211;-84
2022/05/02 04:07:37;;;;;;;3.33;2.10;;;;;;;7.11;100.00;96128.13;5032261;28;20217;-83
2022/05/02 04:10:06;;;;;;;2.77;2.47;;;;;;;7.07;100.00;96116.13;5037811;28;20210;-83
2022/05/02 04:12:37;;;;;;;3.07;2.60;;;;;;;7.09;100.00;96125.63;5047934;28;20231;-83
2022/05/02 04:15:05;;;;;;;3.30;2.60;;;;;;;7.09;100.00;96122.13;5038684;28;20207;-84
2022/05/02 04:17:32;;;;;;;4.20;3.10;;;;;;;7.13;100.00;96118.00;5022970;28;20222;-84
2022/05/02 04:19:59;;;;;;;6.30;2.60;;;;;;;7.13;100.00;96120.69;5025141;28;20245;-84
2022/05/02 04:22:27;;;;;;;4.23;3.47;;;;;;;7.13;100.00;96115.31;5031918;28;20311;-83
2022/05/02 04:24:54;;;;;;;3.40;2.83;;;;;;;7.21;100.00;96129.31;5032109;28;20214;-83
2022/05/02 04:27:22;;;;;;;4.07;3.20;;;;;;;7.20;100.00;96126.84;5034060;28;20309;-83
2022/05/02 04:29:49;;;;;;;3.07;2.73;;;;;;;7.14;100.00;96133.88;5049823;28;20291;-84
2022/05/02 04:32:16;;;;;;;2.87;2.50;;;;;;;7.09;100.00;96138.22;5037025;28;20226;-84
2022/05/02 04:34:43;;;;;;;3.87;2.50;;;;;;;6.99;100.00;96125.25;5040572;28;20302;-84
2022/05/02 04:37:10;;;;;;;4.17;2.83;;;;;;;7.01;100.00;96127.75;5020619;28;20203;-83
2022/05/02 04:39:37;;;;;;;4.73;2.87;;;;;;;6.92;100.00;96121.78;5015790;28;20234;-83
2022/05/02 04:42:06;;;;;;;7.87;3.10;;;;;;;6.88;100.00;96117.06;5024796;28;20200;-84
2022/05/02 04:44:35;;;;;;;4.00;3.07;;;;;;;6.91;100.00;96127.38;5041717;28;20282;-84
2022/05/02 04:47:02;;;;;;;4.47;2.77;;;;;;;7.00;100.00;96118.03;5022256;28;20270;-83
2022/05/02 04:49:29;;;;;;;3.50;3.20;;;;;;;7.06;100.00;96125.25;5015139;28;20210;-84
2022/05/02 04:51:56;;;;;;;4.83;2.80;;;;;;;7.11;100.00;96117.38;5041338;28;20326;-83
2022/05/02 04:54:23;;;;;;;5.10;2.70;;;;;;;7.14;100.00;96125.00;5030874;28;20202;-84
2022/05/02 04:56:50;;;;;;;4.50;4.10;;;;;;;7.06;100.00;96119.88;5042768;28;20294;-83
2022/05/02 04:59:18;;;;;;;4.43;3.13;;;;;;;7.09;100.00;96124.81;5032420;28;20222;-83
2022/05/02 05:01:46;;;;;;;8.00;5.63;;;;;;;7.09;100.00;96124.81;5019737;28;20219;-84
2022/05/02 05:04:13;;;;;;;6.47;3.50;;;;;;;7.09;100.00;96122.94;5028163;28;20221;-84
2022/05/02 05:06:40;;;;;;;9.33;4.47;;;;;;;7.16;100.00;96131.78;5028280;28;20249;-84
2022/05/02 05:09:08;;;;;;;6.77;4.87;;;;;;;7.15;100.00;96124.78;5025075;28;20292;-84
2022/05/02 05:11:46;;;;;;;5.13;4.27;;;;;;;7.18;100.00;96128.91;5046014;28;20266;-83
2022/05/02 05:17:22;;;;;;;5.57;3.27;;;;;;;7.17;100.00;96138.81;5021788;28;20234;-83
2022/05/02 05:20:10;;;;;;;8.67;3.33;;;;;;;7.10;100.00;96139.88;5044247;28;20214;-84
2022/05/02 05:23:03;;;;;;;5.40;3.10;;;;;;;7.04;100.00;96143.44;5027222;28;20203;-83
2022/05/02 05:25:42;;;;;;;3.50;3.10;;;;;;;6.97;100.00;96137.28;5051036;28;20211;-83
2022/05/02 05:28:29;;;;;;;6.03;3.80;;;;;;;6.93;100.00;96142.22;5036965;28;20211;-83
2022/05/02 05:31:08;;;;;;;4.13;3.20;;;;;;;6.98;100.00;96146.94;5037073;28;20214;-82
2022/05/02 05:33:50;;;;;;;5.30;3.87;;;;;;;7.02;100.00;96150.88;5042498;28;20211;-83
2022/05/02 05:36:25;;;;;;;5.47;3.60;;;;;;;7.04;100.00;96148.81;5040503;28;20238;-84
2022/05/02 05:39:02;;;;;;;5.07;3.17;;;;;;;7.06;100.00;96149.41;5034003;28;20241;-84
2022/05/02 05:41:50;;;;;;;4.43;3.63;;;;;;;7.09;100.00;96146.28;5040890;28;20214;-84
2022/05/02 05:44:29;;;;;;;6.97;3.67;;;;;;;6.99;100.00;96140.53;5020764;28;20211;-84
2022/05/02 05:47:21;;;;;;;7.00;3.87;;;;;;;6.96;100.00;96135.63;5034077;28;20210;-84
2022/05/02 05:50:03;;;;;;;4.57;3.90;;;;;;;6.94;100.00;96143.88;5034696;28;20215;-84
2022/05/02 05:52:45;;;;;;;4.00;3.53;;;;;;;6.94;100.00;96143.88;5043812;28;20222;-84
2022/05/02 05:55:17;;;;;;;5.40;4.67;;;;;;;6.86;100.00;96141.44;5036417;28;20215;-84
2022/05/02 05:57:50;;;;;;;4.50;3.90;;;;;;;6.87;100.00;96137.72;5024498;28;20243;-84
2022/05/02 06:00:18;;;;;;;6.73;4.07;;;;;;;6.96;100.00;96146.34;5012042;28;20231;-84
2022/05/02 06:03:02;;;;;;;5.97;4.37;;;;;;;7.01;100.00;96144.66;5020897;28;20209;-83
2022/05/02 06:05:35;;;;;;;4.97;3.37;;;;;;;7.09;100.00;96149.81;5019440;28;20214;-84
2022/05/02 06:08:04;;;;;;;6.00;3.50;;;;;;;7.15;100.00;96145.44;5018422;28;20234;-84
2022/05/02 06:10:33;;;;;;;7.23;4.73;;;;;;;7.08;100.00;96148.16;5033325;28;20221;-84
2022/05/02 06:13:03;;;;;;;5.33;4.43;;;;;;;6.90;100.00;96137.28;5025235;28;20284;-84
2022/05/02 06:18:29;;;;;;;12.87;7.20;;;;;;;6.77;100.00;96140.03;4998897;28;20199;-83
2022/05/02 06:20:59;;;;;;;10.37;5.27;;;;;;;6.72;100.00;96134.47;5023618;28;20260;-83
2022/05/02 06:23:32;;;;;;;10.03;4.30;;;;;;;6.78;100.00;96139.00;5026705;28;20203;-84
2022/05/02 06:25:59;;;;;;;10.57;4.57;;;;;;;6.83;100.00;96148.03;5025032;28;20218;-83
2022/05/02 06:28:31;;;;;;;14.20;5.77;;;;;;;6.83;100.00;96134.63;5040674;28;20207;-83
2022/05/02 06:31:01;;;;;;;5.43;3.63;;;;;;;6.87;100.00;96136.88;5025689;28;20214;-84
2022/05/02 06:33:30;;;;;;;5.17;3.40;;;;;;;6.99;100.00;96136.00;5019353;28;20246;-82
2022/05/02 06:36:12;;;;;;;6.87;3.90;;;;;;;6.98;100.00;96128.16;5012285;28;20298;-83
2022/05/02 06:38:51;;;;;;;4.97;3.97;;;;;;;7.03;100.00;96134.56;5016828;28;20249;-82
2022/05/02 06:41:34;;;;;;;7.43;4.90;;;;;;;7.06;100.00;96125.25;5037469;28;20217;-82
2022/05/02 06:44:10;;;;;;;9.00;4.43;;;;;;;7.06;100.00;96133.31;5043544;28;20215;-82
2022/05/02 06:46:43;;;;;;;9.67;6.77;;;;;;;7.17;100.00;96125.38;5022148;28;20206;-85
2022/05/02 06:49:13;;;;;;;10.43;5.33;;;;;;;7.17;100.00;96127.25;5024330;28;20234;-82
2022/05/02 06:51:47;;;;;;;6.73;4.70;;;;;;;7.21;100.00;96123.09;5027901;28;20238;-85
2022/05/02 06:54:30;;;;;;;8.37;4.80;;;;;;;7.26;100.00;96123.28;5028182;28;20202;-82
2022/05/02 06:57:08;;;;;;;5.23;3.27;;;;;;;7.29;100.00;96124.72;5040617;28;20281;-82
2022/05/02 06:59:41;;;;;;;5.17;3.53;;;;;;;7.28;100.00;96123.91;5039980;28;20210;-83
2022/05/02 07:02:49;;;;;;;8.13;3.80;;;;;;;7.27;100.00;96108.81;5037318;28;20220;-82
2022/05/02 07:05:26;;;;;;;2.70;2.50;;;;;;;7.34;100.00;96123.03;5025969;28;20211;-83
2022/05/02 07:08:00;;;;;;;4.03;2.60;;;;;;;7.41;100.00;96110.38;5043243;28;20265;-83
2022/05/02 07:10:33;;;;;;;3.30;3.00;;;;;;;7.49;100.00;96114.66;5015514;28;20216;-83
2022/05/02 07:13:11;;;;;;;3.07;2.50;;;;;;;7.47;100.00;96114.06;5017532;28;20215;-83
2022/05/02 07:15:44;;;;;;;3.43;2.40;;;;;;;7.49;100.00;96120.84;5013826;28;20269;-83
2022/05/02 07:18:26;;;;;;;3.80;2.70;;;;;;;7.54;100.00;96113.00;5026382;28;20244;-83
2022/05/02 07:21:08;;;;;;;2.60;2.40;;;;;;;7.69;100.00;96117.22;5025962;28;20288;-83
2022/05/02 07:23:49;;;;;;;2.53;2.33;;;;;;;7.89;100.00;96112.53;5011109;28;20215;-83
2022/05/02 07:26:20;;;;;;;2.80;2.60;;;;;;;8.53;100.00;96108.66;5043618;28;20205;-84
2022/05/02 07:28:49;;;;;;;2.60;2.40;;;;;;;9.20;100.00;96106.81;5020003;28;20238;-84
2022/05/02 07:31:20;;;;;;;4.03;2.17;;;;;;;9.75;100.00;96104.78;5009791;28;20261;-84
2022/05/02 07:33:50;;;;;;;3.40;2.00;;;;;;;10.14;100.00;96116.81;5042171;28;20229;-84
2022/05/02 07:36:18;;;;;;;2.20;2.00;;;;;;;10.60;100.00;96113.34;5015774;28;20203;-83
2022/05/02 07:38:50;;;;;;;3.27;2.13;;;;;;;10.97;100.00;96122.00;5024924;28;20409;-83
2022/05/02 07:41:25;;;;;;;2.97;2.03;;;;;;;11.11;100.00;96115.25;5025276;28;20221;-83
2022/05/02 07:44:04;;;;;;;2.10;1.90;;;;;;;11.21;100.00;96114.66;5041565;28;20217;-83
2022/05/02 07:46:36;;;;;;;2.30;1.97;;;;;;;11.19;100.00;96112.19;5038661;28;20211;-83
2022/05/02 07:49:05;;;;;;;3.53;2.13;;;;;;;11.50;99.55;96119.00;5025120;28;20264;-83
2022/05/02 07:51:33;;;;;;;3.13;1.90;;;;;;;11.56;100.00;96122.63;5020334;28;20235;-84
2022/05/02 07:54:03;;;;;;;2.40;2.20;;;;;;;11.59;99.55;96111.31;5039789;28;20246;-84
2022/05/02 07:56:33;;;;;;;4.33;1.90;;;;;;;11.46;100.00;96106.22;5038928;28;20310;-84
2022/05/02 07:59:00;;;;;;;2.73;2.00;;;;;;;11.53;98.69;96115.00;5020112;28;20200;-83
2022/05/02 08:01:27;;;;;;;3.23;2.00;;;;;;;11.72;100.00;96111.84;5023729;28;20297;-83
2022/05/02 08:03:55;;;;;;;3.33;2.43;;;;;;;12.19;96.99;96106.16;5033437;28;20305;-83
2022/05/02 08:06:36;;;;;;;3.70;2.03;;;;;;;12.63;94.28;96106.31;5029800;28;20214;-84
2022/05/02 08:09:15;;;;;;;4.27;2.07;;;;;;;13.02;90.71;96099.78;5026774;28;20221;-84
2022/05/02 08:11:49;;;;;;;2.63;2.10;;;;;;;13.11;88.51;96102.88;5022003;28;20263;-84
2022/05/02 08:14:22;;;;;;;2.20;2.00;;;;;;;13.01;85.63;96097.34;5026513;28;20203;-83
2022/05/02 08:17:02;;;;;;;2.53;2.30;;;;;;;13.11;84.49;96092.88;5013321;28;20314;-83
2022/05/02 08:19:47;;;;;;;3.47;1.87;;;;;;;13.58;83.53;96097.78;5022417;28;20234;-83
2022/05/02 08:28:09;;;;;;;3.33;2.67;;;;;;;14.72;78.82;96089.25;5017692;28;20207;-83
2022/05/02 08:30:48;;;;;;;6.70;3.00;;;;;;;14.93;76.02;96077.44;5031766;28;20209;-83
2022/05/02 08:33:24;;;;;;;4.20;3.00;;;;;;;14.97;77.55;96077.75;5033821;28;20219;-83
2022/05/02 08:35:56;;;;;;;3.27;2.90;;;;;;;15.24;76.02;96077.56;5035148;28;20214;-83
2022/05/02 08:38:48;;;;;;;4.47;2.87;;;;;;;15.41;74.70;96070.81;5044223;28;20213;-83
2022/05/02 08:41:58;;;;;;;4.60;2.90;;;;;;;15.71;74.07;96078.31;5024840;28;20299;-84
2022/05/02 08:45:06;;;;;;;3.83;2.90;;;;;;;15.76;75.29;96072.84;5037282;28;20261;-83
2022/05/02 08:48:10;;;;;;;2.87;2.60;;;;;;;16.09;72.92;96068.81;5021165;28;20233;-84
2022/05/02 08:51:20;;;;;;;4.23;2.97;;;;;;;16.09;72.02;96060.63;4972436;28;20241;-83
2022/05/02 08:54:21;;;;;;;3.00;2.70;;;;;;;16.27;71.20;96064.72;5033642;28;20322;-83
2022/05/02 08:57:09;;;;;;;3.23;2.90;;;;;;;16.58;69.89;96058.16;5018957;28;20213;-83
2022/05/02 09:00:05;;;;;;;4.00;2.60;;;;;;;15.82;72.01;96055.44;5036613;28;20215;-83
2022/05/02 09:03:10;;;;;;;2.63;2.40;;;;;;;15.97;71.61;96054.66;5031676;28;20219;-83
2022/05/02 09:06:08;;;;;;;5.83;2.47;;;;;;;15.96;70.66;96058.47;5019873;28;20218;-83
2022/05/02 09:09:04;;;;;;;2.93;2.47;;;;;;;16.27;66.98;96054.66;5022724;28;20206;-83
2022/05/02 09:11:35;;;;;;;2.90;2.57;;;;;;;16.23;68.04;96047.31;5024350;28;20326;-83
2022/05/02 09:14:26;;;;;;;2.30;2.10;;;;;;;16.54;67.62;96048.91;5045094;28;20252;-83
2022/05/02 09:17:34;;;;;;;2.50;2.30;;;;;;;16.54;65.58;96051.63;5038650;28;20258;-83
2022/05/02 09:20:14;;;;;;;3.03;2.53;;;;;;;16.69;64.22;96047.25;5019494;28;20222;-83
2022/05/02 09:23:19;;;;;;;2.83;2.40;;;;;;;16.69;64.28;96044.53;5055394;28;20305;-83
2022/05/02 09:26:08;;;;;;;3.50;2.33;;;;;;;16.75;66.82;96043.44;5036744;28;20226;-83
2022/05/02 09:28:55;;;;;;;3.03;2.60;;;;;;;16.77;66.25;96035.78;5039424;28;20288;-83
2022/05/02 09:31:40;;;;;;;4.10;2.30;;;;;;;16.92;67.34;96046.69;5015887;28;20254;-83
2022/05/02 09:34:18;;;;;;;6.23;2.70;;;;;;;17.06;64.56;96034.06;5021338;28;20226;-83
2022/05/02 09:36:49;;;;;;;3.93;2.57;;;;;;;17.06;65.48;96041.44;5027994;28;20211;-88
2022/05/02 09:39:24;;;;;;;3.83;2.50;;;;;;;16.98;64.14;96027.28;5022545;28;20203;-88
2022/05/02 09:42:10;;;;;;;7.43;3.23;;;;;;;17.01;65.22;96029.44;5024624;28;20255;-87
2022/05/02 09:51:02;;;;;;;5.97;3.00;;;;;;;17.32;64.65;96024.69;5052815;28;20277;-84
2022/05/02 09:53:40;;;;;;;3.73;3.10;;;;;;;17.22;64.97;96022.00;5019946;28;20325;-84
2022/05/02 09:59:02;;;;;;;4.83;3.07;;;;;;;17.39;65.33;96017.00;5016584;28;20211;-85
2022/05/02 10:01:33;;;;;;;4.40;2.80;;;;;;;17.48;66.89;96017.22;5034238;28;20227;-85
2022/05/02 10:04:36;;;;;;;4.60;3.00;;;;;;;17.48;64.24;96017.22;5022494;28;20293;-85
2022/05/02 10:07:07;;;;;;;3.20;2.90;;;;;;;17.34;65.44;96000.66;5040870;28;20264;-85
2022/05/02 10:09:53;;;;;;;3.20;2.90;;;;;;;17.35;64.80;96002.25;5036168;28;20211;-85
2022/05/02 10:12:27;;;;;;;3.83;2.90;;;;;;;17.66;65.09;96002.13;5018445;28;20214;-85
2022/05/02 10:15:21;;;;;;;3.03;2.73;;;;;;;17.85;65.02;96000.38;5030489;28;20205;-85
2022/05/02 10:18:15;;;;;;;3.87;2.70;;;;;;;18.04;62.68;96001.28;5021133;28;20202;-86
2022/05/02 10:21:03;;;;;;;3.43;2.90;;;;;;;18.05;64.00;95992.00;5025961;28;20207;-85
2022/05/02 10:23:51;;;;;;;3.90;3.20;;;;;;;18.26;65.21;95992.63;5030712;28;20249;-85
2022/05/02 10:26:27;;;;;;;4.43;4.03;;;;;;;17.97;66.26;95989.06;5027594;28;20257;-85
2022/05/02 10:29:34;;;;;;;4.27;3.33;;;;;;;18.23;67.83;95989.66;5041971;28;20206;-85
2022/05/02 10:32:05;;;;;;;4.33;3.93;;;;;;;18.40;67.50;95981.84;5026458;28;20202;-85
2022/05/02 10:34:36;;;;;;;4.43;3.50;;;;;;;18.70;64.62;95983.47;5036657;28;20300;-85
2022/05/02 10:37:07;;;;;;;4.07;3.63;;;;;;;18.79;64.91;95984.47;5024760;28;20301;-85
2022/05/02 10:39:40;;;;;;;3.23;2.93;;;;;;;18.88;64.32;95975.31;5024816;28;20275;-85
2022/05/02 10:42:10;;;;;;;3.40;3.00;;;;;;;18.86;61.86;95982.19;5033478;28;20289;-86
2022/05/02 10:44:50;;;;;;;4.37;3.30;;;;;;;18.54;62.40;95980.06;5030269;28;20222;-85
2022/05/02 10:47:20;;;;;;;4.37;3.40;;;;;;;18.42;62.27;95968.69;5017158;28;20229;-86
2022/05/02 10:50:08;;;;;;;3.50;3.20;;;;;;;18.52;63.69;95976.81;5031470;28;20226;-85
2022/05/02 10:52:53;;;;;;;3.30;3.00;;;;;;;18.85;63.41;95969.63;5029403;28;20230;-85
2022/05/02 10:55:25;;;;;;;4.50;3.43;;;;;;;18.84;60.86;95963.34;5019538;28;20210;-85
2022/05/02 10:57:53;;;;;;;3.67;3.10;;;;;;;19.08;60.75;95965.22;5040539;28;20237;-86
2022/05/02 11:00:21;;;;;;;3.90;3.10;;;;;;;19.19;59.66;95966.75;5020763;28;20196;-86
2022/05/02 11:03:16;;;;;;;3.63;3.10;;;;;;;19.22;60.21;95955.22;5013002;28;20282;-86
2022/05/02 11:05:54;;;;;;;3.30;3.00;;;;;;;19.41;59.05;95953.28;5026449;28;20261;-86
2022/05/02 11:08:31;;;;;;;4.47;3.25;;;;;;;19.33;59.87;95951.19;5043216;28;20305;-86
2022/05/02 11:11:01;;;;;;;4.87;3.10;;;;;;;19.35;58.19;95946.25;5027452;28;20284;-86
2022/05/02 11:13:39;;;;;;;6.38;3.00;;;;;;;19.31;57.65;95947.16;5040018;28;20297;-86
2022/05/02 11:16:19;;;;;;;4.65;3.35;;;;;;;19.56;58.59;95939.38;5024897;28;20222;-86
2022/05/02 11:21:58;;;;;;;4.30;3.20;;;;;;;19.53;58.71;95934.53;5019329;28;20211;-85
2022/05/02 11:24:42;;;;;;;10.55;3.67;;;;;;;19.57;59.44;95927.31;5041598;28;20313;-86
2022/05/02 11:27:26;;;;;;;11.45;4.50;;;;;;;19.55;58.16;95921.34;5024873;28;20211;-86
2022/05/02 11:30:02;;;;;;;10.95;3.80;;;;;;;19.78;57.87;95921.53;5020226;28;20382;-86
2022/05/02 11:32:40;;;;;;;4.28;3.65;;;;;;;19.91;56.04;95924.31;5019222;28;20297;-86
2022/05/02 11:35:13;;;;;;;5.53;3.55;;;;;;;19.86;55.52;95926.34;5052257;28;20205;-86
2022/05/02 11:37:52;;;;;;;4.68;3.17;;;;;;;19.93;55.83;95911.13;5036090;28;20235;-87
2022/05/02 11:40:27;;;;;;;5.50;3.53;;;;;;;20.08;55.90;95911.97;5026002;28;20207;-86
2022/05/02 11:42:55;;;;;;;5.90;3.50;;;;;;;20.15;54.84;95915.16;5020099;28;20206;-86
2022/05/02 11:45:34;;;;;;;5.63;3.75;;;;;;;20.01;54.01;95906.88;5024957;28;20227;-87
2022/05/02 11:48:24;;;;;;;9.32;4.07;;;;;;;20.08;56.42;95911.97;5038390;28;20293;-87
2022/05/02 11:50:57;;;;;;;4.40;3.55;;;;;;;20.15;55.85;95907.75;5024385;28;20265;-86
2022/05/02 11:53:30;;;;;;;4.00;3.60;;;;;;;20.18;55.04;95906.31;5020994;28;20227;-87
2022/05/02 11:56:04;;;;;;;22.60;5.38;;;;;;;20.21;55.18;95909.28;5040898;28;20215;-87
2022/05/02 11:58:38;;;;;;;4.57;3.70;;;;;;;20.03;54.99;95894.53;5028736;28;20223;-87
2022/05/02 12:01:06;;;;;;;6.15;4.32;;;;;;;20.27;56.80;95894.34;5019622;28;20306;-86
2022/05/02 12:03:53;;;;;;;3.72;3.42;;;;;;;20.38;55.18;95898.56;5035669;28;20207;-87
2022/05/02 12:06:31;;;;;;;7.38;4.20;;;;;;;20.57;55.71;95887.53;5019532;28;20214;-87
2022/05/02 12:09:03;;;;;;;5.95;4.30;;;;;;;20.76;55.29;95892.88;5010945;28;20213;-87
2022/05/02 12:11:32;;;;;;;5.60;4.18;;;;;;;20.84;55.55;95891.38;5033918;28;20210;-86
2022/05/02 12:14:01;;;;;;;11.55;4.47;;;;;;;20.76;54.99;95890.94;5015026;28;20227;-86
2022/05/02 12:16:33;;;;;;;6.30;4.38;;;;;;;20.76;54.24;95896.44;5028756;28;20237;-87
2022/05/02 12:19:03;;;;;;;19.98;5.68;;;;;;;20.88;54.27;95892.38;5041960;28;20216;-87
2022/05/02 12:21:36;;;;;;;20.65;7.60;;;;;;;20.58;55.06;95882.84;5019816;28;20207;-87
2022/05/02 12:24:06;;;;;;;5.97;4.00;;;;;;;20.43;55.00;95891.34;5021004;28;20202;-87
2022/05/02 12:26:44;;;;;;;4.97;4.13;;;;;;;20.72;57.06;95889.94;5041688;28;20202;-87
2022/05/02 12:29:15;;;;;;;8.90;4.93;;;;;;;20.77;55.05;95884.34;5015985;28;20205;-87